• pl
  • eng

Awiacja
Komunikaty METAR z lotnisk wojskowych. 06:01 24.01.2018

METAR EPCE 240530Z 20010KT 160V230 3900 BR OVC006 01/00
Q1014 RMK 010 094 8/8 =

METAR EPDA 240530Z 21014KT 2000 -RA BR OVC004 03/03
Q1014 RMK 032 098 8/8 =

METAR EPDE 240530Z 15008KT 8000 OVC030 M04/M06 Q1026 RMK M038 085
8/8=

METAR EPIR 240530Z 16016KT 1700 BR SCT040 BKN060 OVC090 00/M01 Q1019
RMK 004 093 8/4 =

METAR EPKS 240530Z 20008KT 5000 BR BKN007 OVC015 02/01 Q1019 RMK 023
092 8/5=

METAR EPLK 240530Z NIL=

METAR EPLY 240530Z NIL=

METAR EPMB 240530Z 17016KT 3000 BR SCT011 OVC050 M00/M02 Q1017 RMK
M005 090 8/4=

METAR EPMI 240530Z 22006KT 2000 BR BKN002 OVC010 01/01 Q1016 RMK 013
095 8/6 =

METAR EPMM 240530Z 17008KT 6000 BKN025 M04/M06 Q1025 RMK M042 090 7/7
=

METAR EPNA 240530Z NIL=

METAR EPOK 240530Z 19012KT 6000 BKN010 OVC050 01/M01
Q1014 RMK 010 089 8/6 =

METAR EPPR 240530Z 18008KT 3000 -SN BR OVC009 M00/M01 Q1016 RMK M002
094 8/8=

METAR EPPW 240530Z 16008KT 4000 BR BKN020 BKN033 01/00 Q1019 RMK 011
094 7/5=

METAR EPSN 240530Z 20008KT 1500 -DZ BR BKN003 OVC010 03/02 Q1015 RMK
025 098 8/6=

METAR EPTM 240530Z NIL=
 METAR EPDA
Lokalizacja:EPDA Darłówek
Czas:05:30 UTC
Średni kierunek wiatru:210 °
Średnia prędkość wiatru:14 węzłów
Widzialność:2000 metrów
Opad:deszcz
Intensywność:słaba
 Zjawisko:zamglenie
Pierwsza warstwa chmur:8/8, wysokość podstawy 400 FT
Temperatura powietrza:3 °C
Temperatura punktu rosy:3 °C
Ciśnienie QNH:1014 hPa
Dokładna temperatura powietrza:3,2 °C
Dokładna wilgotność względna:98 %
Zachmurzenie przez wszystkie piętra chmur:8/8
Zachmurzenie przez chmury niskie:8/8
Awiacja.imgw.pl jest pogodowym serwisem informacyjnym
Instytutu Meteorologii i Gospodarki Wodnej Państwowego Instytutu Badawczego.
Copyright IMGW PIB 2009-2011© Wszelkie prawa zastrzeżone.